sensor_id;sensor_type;location;lat;lon;timestamp;P1;durP1;ratioP1;P2;durP2;ratioP2
7160;SDS011;3622;53.576;9.978;2022-10-22T00:02:21;26.23;;;13.20;;
7160;SDS011;3622;53.576;9.978;2022-10-22T00:04:48;33.53;;;16.87;;
7160;SDS011;3622;53.576;9.978;2022-10-22T00:07:15;25.30;;;15.60;;
7160;SDS011;3622;53.576;9.978;2022-10-22T00:09:41;30.33;;;17.60;;
7160;SDS011;3622;53.576;9.978;2022-10-22T00:12:07;29.23;;;16.30;;
7160;SDS011;3622;53.576;9.978;2022-10-22T00:14:33;23.03;;;13.77;;
7160;SDS011;3622;53.576;9.978;2022-10-22T00:17:00;23.10;;;12.50;;
7160;SDS011;3622;53.576;9.978;2022-10-22T00:19:26;30.67;;;19.33;;
7160;SDS011;3622;53.576;9.978;2022-10-22T00:21:52;30.30;;;20.17;;
7160;SDS011;3622;53.576;9.978;2022-10-22T00:24:18;27.73;;;17.13;;
7160;SDS011;3622;53.576;9.978;2022-10-22T00:26:44;29.53;;;18.30;;
7160;SDS011;3622;53.576;9.978;2022-10-22T00:29:10;28.60;;;14.97;;
7160;SDS011;3622;53.576;9.978;2022-10-22T00:31:36;25.97;;;14.73;;
7160;SDS011;3622;53.576;9.978;2022-10-22T00:34:02;25.83;;;14.30;;
7160;SDS011;3622;53.576;9.978;2022-10-22T00:36:28;24.40;;;14.37;;
7160;SDS011;3622;53.576;9.978;2022-10-22T00:38:54;17.40;;;12.33;;
7160;SDS011;3622;53.576;9.978;2022-10-22T00:41:20;23.93;;;13.23;;
7160;SDS011;3622;53.576;9.978;2022-10-22T00:43:57;22.00;;;13.60;;
7160;SDS011;3622;53.576;9.978;2022-10-22T00:46:24;30.53;;;14.70;;
7160;SDS011;3622;53.576;9.978;2022-10-22T00:48:50;41.77;;;26.33;;
7160;SDS011;3622;53.576;9.978;2022-10-22T00:51:17;23.33;;;13.90;;
7160;SDS011;3622;53.576;9.978;2022-10-22T00:53:44;26.30;;;13.37;;
7160;SDS011;3622;53.576;9.978;2022-10-22T00:56:12;24.93;;;12.93;;
7160;SDS011;3622;53.576;9.978;2022-10-22T00:58:40;22.00;;;13.57;;
7160;SDS011;3622;53.576;9.978;2022-10-22T01:01:08;29.23;;;14.07;;
7160;SDS011;3622;53.576;9.978;2022-10-22T01:03:35;20.80;;;13.80;;
7160;SDS011;3622;53.576;9.978;2022-10-22T01:06:02;23.20;;;14.00;;
7160;SDS011;3622;53.576;9.978;2022-10-22T01:08:42;20.90;;;14.10;;
7160;SDS011;3622;53.576;9.978;2022-10-22T01:14:13;23.83;;;14.63;;
7160;SDS011;3622;53.576;9.978;2022-10-22T01:21:47;22.40;;;13.77;;
7160;SDS011;3622;53.576;9.978;2022-10-22T01:26:58;26.87;;;14.30;;
7160;SDS011;3622;53.576;9.978;2022-10-22T01:29:26;25.80;;;13.70;;
7160;SDS011;3622;53.576;9.978;2022-10-22T01:31:55;21.17;;;13.93;;
7160;SDS011;3622;53.576;9.978;2022-10-22T01:34:23;22.07;;;13.20;;
7160;SDS011;3622;53.576;9.978;2022-10-22T01:36:50;22.73;;;13.33;;
7160;SDS011;3622;53.576;9.978;2022-10-22T01:39:16;23.90;;;13.50;;
7160;SDS011;3622;53.576;9.978;2022-10-22T01:41:43;23.47;;;15.00;;
7160;SDS011;3622;53.576;9.978;2022-10-22T01:54:51;30.00;;;14.90;;
7160;SDS011;3622;53.576;9.978;2022-10-22T01:57:26;34.40;;;19.00;;
7160;SDS011;3622;53.576;9.978;2022-10-22T02:02:40;26.90;;;16.80;;
7160;SDS011;3622;53.576;9.978;2022-10-22T02:05:09;30.40;;;15.90;;
7160;SDS011;3622;53.576;9.978;2022-10-22T02:07:43;30.70;;;17.97;;
7160;SDS011;3622;53.576;9.978;2022-10-22T02:10:10;33.50;;;16.83;;
7160;SDS011;3622;53.576;9.978;2022-10-22T02:12:36;32.57;;;16.20;;
7160;SDS011;3622;53.576;9.978;2022-10-22T02:15:04;32.17;;;17.60;;
7160;SDS011;3622;53.576;9.978;2022-10-22T02:17:30;23.60;;;14.73;;
7160;SDS011;3622;53.576;9.978;2022-10-22T02:20:00;29.90;;;15.20;;
7160;SDS011;3622;53.576;9.978;2022-10-22T02:22:26;34.83;;;22.07;;
7160;SDS011;3622;53.576;9.978;2022-10-22T02:24:53;31.43;;;16.87;;
7160;SDS011;3622;53.576;9.978;2022-10-22T02:27:26;40.80;;;17.57;;
7160;SDS011;3622;53.576;9.978;2022-10-22T02:32:22;33.93;;;21.00;;
7160;SDS011;3622;53.576;9.978;2022-10-22T02:34:49;36.90;;;17.23;;
7160;SDS011;3622;53.576;9.978;2022-10-22T02:37:15;27.77;;;16.50;;
7160;SDS011;3622;53.576;9.978;2022-10-22T02:39:41;33.37;;;16.40;;
7160;SDS011;3622;53.576;9.978;2022-10-22T02:42:08;30.33;;;16.67;;
7160;SDS011;3622;53.576;9.978;2022-10-22T02:44:36;38.27;;;23.03;;
7160;SDS011;3622;53.576;9.978;2022-10-22T02:47:02;64.53;;;34.53;;
7160;SDS011;3622;53.576;9.978;2022-10-22T02:49:28;36.50;;;20.83;;
7160;SDS011;3622;53.576;9.978;2022-10-22T02:51:54;32.93;;;19.60;;
7160;SDS011;3622;53.576;9.978;2022-10-22T02:54:20;50.57;;;24.07;;
7160;SDS011;3622;53.576;9.978;2022-10-22T02:56:46;37.50;;;20.50;;
7160;SDS011;3622;53.576;9.978;2022-10-22T02:59:12;29.23;;;16.10;;
7160;SDS011;3622;53.576;9.978;2022-10-22T03:01:38;30.70;;;16.10;;
7160;SDS011;3622;53.576;9.978;2022-10-22T03:04:04;68.37;;;38.23;;
7160;SDS011;3622;53.576;9.978;2022-10-22T03:06:30;43.50;;;26.53;;
7160;SDS011;3622;53.576;9.978;2022-10-22T03:08:56;62.73;;;36.60;;
7160;SDS011;3622;53.576;9.978;2022-10-22T03:11:22;44.23;;;21.60;;
7160;SDS011;3622;53.576;9.978;2022-10-22T03:13:48;31.67;;;18.43;;
7160;SDS011;3622;53.576;9.978;2022-10-22T03:16:14;27.60;;;15.67;;
7160;SDS011;3622;53.576;9.978;2022-10-22T03:18:40;26.03;;;15.07;;
7160;SDS011;3622;53.576;9.978;2022-10-22T03:23:35;55.47;;;31.93;;
7160;SDS011;3622;53.576;9.978;2022-10-22T03:26:01;102.20;;;54.97;;
7160;SDS011;3622;53.576;9.978;2022-10-22T03:28:29;64.63;;;37.53;;
7160;SDS011;3622;53.576;9.978;2022-10-22T03:30:55;38.67;;;22.27;;
7160;SDS011;3622;53.576;9.978;2022-10-22T03:33:21;38.60;;;18.63;;
7160;SDS011;3622;53.576;9.978;2022-10-22T03:35:47;36.50;;;21.23;;
7160;SDS011;3622;53.576;9.978;2022-10-22T03:38:13;36.90;;;21.20;;
7160;SDS011;3622;53.576;9.978;2022-10-22T03:40:40;65.77;;;38.00;;
7160;SDS011;3622;53.576;9.978;2022-10-22T03:43:07;59.83;;;36.13;;
7160;SDS011;3622;53.576;9.978;2022-10-22T03:45:33;33.60;;;17.33;;
7160;SDS011;3622;53.576;9.978;2022-10-22T03:47:59;36.07;;;19.60;;
7160;SDS011;3622;53.576;9.978;2022-10-22T03:50:25;36.80;;;21.20;;
7160;SDS011;3622;53.576;9.978;2022-10-22T03:52:51;43.90;;;25.17;;
7160;SDS011;3622;53.576;9.978;2022-10-22T03:55:17;42.43;;;23.70;;
7160;SDS011;3622;53.576;9.978;2022-10-22T03:57:43;31.93;;;19.13;;
7160;SDS011;3622;53.576;9.978;2022-10-22T04:00:09;29.43;;;14.93;;
7160;SDS011;3622;53.576;9.978;2022-10-22T04:02:35;36.40;;;16.97;;
7160;SDS011;3622;53.576;9.978;2022-10-22T04:05:01;34.40;;;17.17;;
7160;SDS011;3622;53.576;9.978;2022-10-22T04:07:27;30.30;;;18.33;;
7160;SDS011;3622;53.576;9.978;2022-10-22T04:09:53;39.00;;;23.47;;
7160;SDS011;3622;53.576;9.978;2022-10-22T04:12:19;50.57;;;25.97;;
7160;SDS011;3622;53.576;9.978;2022-10-22T04:14:46;32.23;;;18.10;;
7160;SDS011;3622;53.576;9.978;2022-10-22T04:17:12;40.30;;;18.93;;
7160;SDS011;3622;53.576;9.978;2022-10-22T04:19:38;34.60;;;18.30;;
7160;SDS011;3622;53.576;9.978;2022-10-22T04:22:04;36.10;;;17.83;;
7160;SDS011;3622;53.576;9.978;2022-10-22T04:24:30;40.77;;;22.00;;
7160;SDS011;3622;53.576;9.978;2022-10-22T04:26:56;86.03;;;47.03;;
7160;SDS011;3622;53.576;9.978;2022-10-22T04:29:22;34.83;;;18.60;;
7160;SDS011;3622;53.576;9.978;2022-10-22T04:31:49;36.33;;;18.17;;
7160;SDS011;3622;53.576;9.978;2022-10-22T04:34:15;32.00;;;16.10;;
7160;SDS011;3622;53.576;9.978;2022-10-22T04:36:41;31.03;;;17.20;;
7160;SDS011;3622;53.576;9.978;2022-10-22T04:39:07;34.07;;;17.43;;
7160;SDS011;3622;53.576;9.978;2022-10-22T04:41:34;35.17;;;18.60;;
7160;SDS011;3622;53.576;9.978;2022-10-22T04:44:00;43.13;;;19.63;;
7160;SDS011;3622;53.576;9.978;2022-10-22T04:46:27;67.53;;;34.40;;
7160;SDS011;3622;53.576;9.978;2022-10-22T04:48:53;66.00;;;37.00;;
7160;SDS011;3622;53.576;9.978;2022-10-22T04:51:20;40.30;;;22.13;;
7160;SDS011;3622;53.576;9.978;2022-10-22T04:53:47;45.87;;;23.37;;
7160;SDS011;3622;53.576;9.978;2022-10-22T04:56:23;32.43;;;18.50;;
7160;SDS011;3622;53.576;9.978;2022-10-22T04:58:59;36.13;;;19.23;;
7160;SDS011;3622;53.576;9.978;2022-10-22T05:01:29;33.43;;;17.03;;
7160;SDS011;3622;53.576;9.978;2022-10-22T05:03:57;32.90;;;16.90;;
7160;SDS011;3622;53.576;9.978;2022-10-22T05:06:23;29.80;;;17.23;;
7160;SDS011;3622;53.576;9.978;2022-10-22T05:08:53;29.17;;;16.20;;
7160;SDS011;3622;53.576;9.978;2022-10-22T05:11:20;28.17;;;15.73;;
7160;SDS011;3622;53.576;9.978;2022-10-22T05:13:46;32.20;;;17.00;;
7160;SDS011;3622;53.576;9.978;2022-10-22T05:16:13;36.20;;;19.40;;
7160;SDS011;3622;53.576;9.978;2022-10-22T05:18:40;43.50;;;25.50;;
7160;SDS011;3622;53.576;9.978;2022-10-22T05:21:07;58.80;;;31.70;;
7160;SDS011;3622;53.576;9.978;2022-10-22T05:23:34;41.10;;;22.23;;
7160;SDS011;3622;53.576;9.978;2022-10-22T05:26:01;44.93;;;25.77;;
7160;SDS011;3622;53.576;9.978;2022-10-22T05:28:27;38.80;;;21.23;;
7160;SDS011;3622;53.576;9.978;2022-10-22T05:30:54;34.63;;;19.87;;
7160;SDS011;3622;53.576;9.978;2022-10-22T05:33:20;29.50;;;16.77;;
7160;SDS011;3622;53.576;9.978;2022-10-22T05:35:47;36.80;;;18.77;;
7160;SDS011;3622;53.576;9.978;2022-10-22T05:38:13;37.17;;;17.47;;
7160;SDS011;3622;53.576;9.978;2022-10-22T05:40:39;36.27;;;17.60;;
7160;SDS011;3622;53.576;9.978;2022-10-22T05:43:05;33.17;;;16.73;;
7160;SDS011;3622;53.576;9.978;2022-10-22T05:45:34;35.30;;;17.60;;
7160;SDS011;3622;53.576;9.978;2022-10-22T05:48:00;32.67;;;16.60;;
7160;SDS011;3622;53.576;9.978;2022-10-22T05:50:26;31.47;;;17.03;;
7160;SDS011;3622;53.576;9.978;2022-10-22T05:52:52;30.97;;;16.00;;
7160;SDS011;3622;53.576;9.978;2022-10-22T05:55:18;28.93;;;16.33;;
7160;SDS011;3622;53.576;9.978;2022-10-22T05:57:44;38.27;;;19.60;;
7160;SDS011;3622;53.576;9.978;2022-10-22T06:00:10;34.27;;;16.70;;
7160;SDS011;3622;53.576;9.978;2022-10-22T06:02:36;39.70;;;16.30;;
7160;SDS011;3622;53.576;9.978;2022-10-22T06:05:02;32.97;;;16.07;;
7160;SDS011;3622;53.576;9.978;2022-10-22T06:07:28;38.87;;;16.47;;
7160;SDS011;3622;53.576;9.978;2022-10-22T06:09:54;31.30;;;16.00;;
7160;SDS011;3622;53.576;9.978;2022-10-22T06:12:21;31.13;;;16.50;;
7160;SDS011;3622;53.576;9.978;2022-10-22T06:14:46;36.47;;;16.73;;
7160;SDS011;3622;53.576;9.978;2022-10-22T06:17:12;32.13;;;17.47;;
7160;SDS011;3622;53.576;9.978;2022-10-22T06:19:38;33.43;;;16.50;;
7160;SDS011;3622;53.576;9.978;2022-10-22T06:22:04;37.53;;;17.67;;
7160;SDS011;3622;53.576;9.978;2022-10-22T06:24:30;31.27;;;16.40;;
7160;SDS011;3622;53.576;9.978;2022-10-22T06:26:56;31.10;;;16.87;;
7160;SDS011;3622;53.576;9.978;2022-10-22T06:29:22;35.37;;;17.03;;
7160;SDS011;3622;53.576;9.978;2022-10-22T06:31:48;30.33;;;16.03;;
7160;SDS011;3622;53.576;9.978;2022-10-22T06:34:15;36.80;;;18.73;;
7160;SDS011;3622;53.576;9.978;2022-10-22T06:36:43;26.33;;;15.83;;
7160;SDS011;3622;53.576;9.978;2022-10-22T06:39:13;29.70;;;16.50;;
7160;SDS011;3622;53.576;9.978;2022-10-22T06:41:39;72.30;;;37.73;;
7160;SDS011;3622;53.576;9.978;2022-10-22T06:44:05;52.70;;;28.27;;
7160;SDS011;3622;53.576;9.978;2022-10-22T06:46:31;34.17;;;18.33;;
7160;SDS011;3622;53.576;9.978;2022-10-22T06:48:58;37.20;;;22.07;;
7160;SDS011;3622;53.576;9.978;2022-10-22T06:51:25;34.10;;;19.20;;
7160;SDS011;3622;53.576;9.978;2022-10-22T06:53:52;33.60;;;18.90;;
7160;SDS011;3622;53.576;9.978;2022-10-22T06:56:19;28.80;;;17.50;;
7160;SDS011;3622;53.576;9.978;2022-10-22T06:58:47;31.30;;;18.70;;
7160;SDS011;3622;53.576;9.978;2022-10-22T07:01:14;32.17;;;17.33;;
7160;SDS011;3622;53.576;9.978;2022-10-22T07:03:40;28.30;;;16.60;;
7160;SDS011;3622;53.576;9.978;2022-10-22T07:06:07;28.60;;;16.73;;
7160;SDS011;3622;53.576;9.978;2022-10-22T07:08:34;36.50;;;18.80;;
7160;SDS011;3622;53.576;9.978;2022-10-22T07:11:07;34.80;;;19.10;;
7160;SDS011;3622;53.576;9.978;2022-10-22T07:13:33;32.77;;;17.30;;
7160;SDS011;3622;53.576;9.978;2022-10-22T07:15:59;33.70;;;19.40;;
7160;SDS011;3622;53.576;9.978;2022-10-22T07:18:25;27.20;;;16.53;;
7160;SDS011;3622;53.576;9.978;2022-10-22T07:20:51;31.07;;;17.80;;
7160;SDS011;3622;53.576;9.978;2022-10-22T07:23:17;26.60;;;15.53;;
7160;SDS011;3622;53.576;9.978;2022-10-22T07:25:43;24.77;;;14.97;;
7160;SDS011;3622;53.576;9.978;2022-10-22T07:28:09;28.97;;;14.53;;
7160;SDS011;3622;53.576;9.978;2022-10-22T07:30:36;32.40;;;15.93;;
7160;SDS011;3622;53.576;9.978;2022-10-22T07:33:02;23.10;;;14.53;;
7160;SDS011;3622;53.576;9.978;2022-10-22T07:35:28;25.70;;;15.30;;
7160;SDS011;3622;53.576;9.978;2022-10-22T07:37:54;26.70;;;14.53;;
7160;SDS011;3622;53.576;9.978;2022-10-22T07:40:20;24.40;;;14.40;;
7160;SDS011;3622;53.576;9.978;2022-10-22T07:42:46;23.60;;;14.70;;
7160;SDS011;3622;53.576;9.978;2022-10-22T07:45:12;23.30;;;14.17;;
7160;SDS011;3622;53.576;9.978;2022-10-22T07:47:38;20.13;;;13.30;;
7160;SDS011;3622;53.576;9.978;2022-10-22T07:50:04;31.57;;;16.80;;
7160;SDS011;3622;53.576;9.978;2022-10-22T07:52:31;24.97;;;13.83;;
7160;SDS011;3622;53.576;9.978;2022-10-22T07:54:57;28.10;;;16.37;;
7160;SDS011;3622;53.576;9.978;2022-10-22T07:57:23;65.87;;;31.40;;
7160;SDS011;3622;53.576;9.978;2022-10-22T07:59:49;27.60;;;16.53;;
7160;SDS011;3622;53.576;9.978;2022-10-22T08:02:15;29.70;;;15.90;;
7160;SDS011;3622;53.576;9.978;2022-10-22T08:04:41;24.20;;;15.70;;
7160;SDS011;3622;53.576;9.978;2022-10-22T08:07:07;30.47;;;14.57;;
7160;SDS011;3622;53.576;9.978;2022-10-22T08:09:33;27.67;;;15.13;;
7160;SDS011;3622;53.576;9.978;2022-10-22T08:12:00;23.63;;;12.97;;
7160;SDS011;3622;53.576;9.978;2022-10-22T08:14:26;20.93;;;12.10;;
7160;SDS011;3622;53.576;9.978;2022-10-22T08:16:52;19.57;;;12.17;;
7160;SDS011;3622;53.576;9.978;2022-10-22T08:19:18;19.30;;;11.67;;
7160;SDS011;3622;53.576;9.978;2022-10-22T08:21:45;24.47;;;13.60;;
7160;SDS011;3622;53.576;9.978;2022-10-22T08:24:12;25.07;;;11.97;;
7160;SDS011;3622;53.576;9.978;2022-10-22T08:26:38;20.83;;;11.13;;
7160;SDS011;3622;53.576;9.978;2022-10-22T08:29:04;22.37;;;13.37;;
7160;SDS011;3622;53.576;9.978;2022-10-22T08:31:30;19.40;;;10.93;;
7160;SDS011;3622;53.576;9.978;2022-10-22T08:33:56;16.63;;;10.70;;
7160;SDS011;3622;53.576;9.978;2022-10-22T08:36:22;19.10;;;11.50;;
7160;SDS011;3622;53.576;9.978;2022-10-22T08:38:48;20.33;;;12.40;;
7160;SDS011;3622;53.576;9.978;2022-10-22T08:41:16;23.87;;;11.80;;
7160;SDS011;3622;53.576;9.978;2022-10-22T08:49:12;16.90;;;11.20;;
7160;SDS011;3622;53.576;9.978;2022-10-22T08:51:39;21.90;;;12.77;;
7160;SDS011;3622;53.576;9.978;2022-10-22T08:57:32;14.57;;;8.53;;
7160;SDS011;3622;53.576;9.978;2022-10-22T08:59:46;12.70;;;8.20;;
7160;SDS011;3622;53.576;9.978;2022-10-22T09:04:44;10.27;;;6.83;;
7160;SDS011;3622;53.576;9.978;2022-10-22T09:07:15;13.07;;;7.50;;
7160;SDS011;3622;53.576;9.978;2022-10-22T09:09:42;10.63;;;6.93;;
7160;SDS011;3622;53.576;9.978;2022-10-22T09:12:13;9.97;;;7.17;;
7160;SDS011;3622;53.576;9.978;2022-10-22T09:14:40;10.30;;;6.83;;
7160;SDS011;3622;53.576;9.978;2022-10-22T09:17:19;8.77;;;6.27;;
7160;SDS011;3622;53.576;9.978;2022-10-22T09:19:48;10.10;;;6.80;;
7160;SDS011;3622;53.576;9.978;2022-10-22T09:22:31;11.43;;;5.70;;
7160;SDS011;3622;53.576;9.978;2022-10-22T09:25:13;12.47;;;6.93;;
7160;SDS011;3622;53.576;9.978;2022-10-22T09:27:42;17.13;;;6.30;;
7160;SDS011;3622;53.576;9.978;2022-10-22T09:30:12;10.10;;;6.60;;
7160;SDS011;3622;53.576;9.978;2022-10-22T09:32:39;9.97;;;6.33;;
7160;SDS011;3622;53.576;9.978;2022-10-22T09:35:07;12.00;;;7.80;;
7160;SDS011;3622;53.576;9.978;2022-10-22T09:37:34;11.90;;;5.10;;
7160;SDS011;3622;53.576;9.978;2022-10-22T09:40:04;8.53;;;5.60;;
7160;SDS011;3622;53.576;9.978;2022-10-22T09:42:30;13.03;;;6.37;;
7160;SDS011;3622;53.576;9.978;2022-10-22T09:44:58;10.83;;;5.70;;
7160;SDS011;3622;53.576;9.978;2022-10-22T09:47:30;13.73;;;5.80;;
7160;SDS011;3622;53.576;9.978;2022-10-22T09:50:04;11.83;;;6.00;;
7160;SDS011;3622;53.576;9.978;2022-10-22T09:52:31;6.97;;;5.00;;
7160;SDS011;3622;53.576;9.978;2022-10-22T09:55:01;7.83;;;5.50;;
7160;SDS011;3622;53.576;9.978;2022-10-22T09:57:27;8.27;;;4.90;;
7160;SDS011;3622;53.576;9.978;2022-10-22T09:59:54;15.07;;;9.87;;
7160;SDS011;3622;53.576;9.978;2022-10-22T10:02:26;6.17;;;5.17;;
7160;SDS011;3622;53.576;9.978;2022-10-22T10:04:53;6.13;;;5.07;;
7160;SDS011;3622;53.576;9.978;2022-10-22T10:07:21;12.77;;;5.30;;
7160;SDS011;3622;53.576;9.978;2022-10-22T10:09:47;8.93;;;5.10;;
7160;SDS011;3622;53.576;9.978;2022-10-22T10:12:34;9.00;;;5.27;;
7160;SDS011;3622;53.576;9.978;2022-10-22T10:15:11;9.20;;;7.20;;
7160;SDS011;3622;53.576;9.978;2022-10-22T10:17:49;11.83;;;7.10;;
7160;SDS011;3622;53.576;9.978;2022-10-22T10:25:47;16.83;;;5.90;;
7160;SDS011;3622;53.576;9.978;2022-10-22T10:33:46;9.13;;;5.13;;
7160;SDS011;3622;53.576;9.978;2022-10-22T10:36:26;11.30;;;4.57;;
7160;SDS011;3622;53.576;9.978;2022-10-22T10:38:56;31.47;;;19.93;;
7160;SDS011;3622;53.576;9.978;2022-10-22T10:43:58;23.80;;;14.30;;
7160;SDS011;3622;53.576;9.978;2022-10-22T10:46:46;14.67;;;6.50;;
7160;SDS011;3622;53.576;9.978;2022-10-22T10:49:18;9.63;;;4.63;;
7160;SDS011;3622;53.576;9.978;2022-10-22T10:51:46;11.57;;;5.23;;
7160;SDS011;3622;53.576;9.978;2022-10-22T10:54:17;4.90;;;3.87;;
7160;SDS011;3622;53.576;9.978;2022-10-22T11:00:13;10.97;;;4.07;;
7160;SDS011;3622;53.576;9.978;2022-10-22T11:02:32;8.73;;;5.10;;
7160;SDS011;3622;53.576;9.978;2022-10-22T11:07:32;8.13;;;3.30;;
7160;SDS011;3622;53.576;9.978;2022-10-22T11:10:02;4.27;;;3.50;;
7160;SDS011;3622;53.576;9.978;2022-10-22T11:12:35;7.93;;;3.47;;
7160;SDS011;3622;53.576;9.978;2022-10-22T11:17:32;5.37;;;2.50;;
7160;SDS011;3622;53.576;9.978;2022-10-22T11:20:02;5.73;;;2.67;;
7160;SDS011;3622;53.576;9.978;2022-10-22T11:22:34;6.23;;;2.90;;
7160;SDS011;3622;53.576;9.978;2022-10-22T11:29:55;5.13;;;2.87;;
7160;SDS011;3622;53.576;9.978;2022-10-22T11:32:22;3.73;;;2.47;;
7160;SDS011;3622;53.576;9.978;2022-10-22T11:34:52;3.83;;;3.03;;
7160;SDS011;3622;53.576;9.978;2022-10-22T11:37:19;4.23;;;3.33;;
7160;SDS011;3622;53.576;9.978;2022-10-22T11:39:50;5.40;;;3.50;;
7160;SDS011;3622;53.576;9.978;2022-10-22T11:42:18;6.90;;;3.70;;
7160;SDS011;3622;53.576;9.978;2022-10-22T11:50:19;3.50;;;2.90;;
7160;SDS011;3622;53.576;9.978;2022-10-22T11:53:00;11.33;;;6.77;;
7160;SDS011;3622;53.576;9.978;2022-10-22T12:16:22;12.30;;;3.00;;
7160;SDS011;3622;53.576;9.978;2022-10-22T12:18:52;4.63;;;3.43;;
7160;SDS011;3622;53.576;9.978;2022-10-22T12:21:20;9.00;;;5.30;;
7160;SDS011;3622;53.576;9.978;2022-10-22T12:23:46;10.60;;;4.20;;
7160;SDS011;3622;53.576;9.978;2022-10-22T12:26:23;5.77;;;5.13;;
7160;SDS011;3622;53.576;9.978;2022-10-22T12:28:49;18.13;;;3.87;;
7160;SDS011;3622;53.576;9.978;2022-10-22T12:31:15;11.77;;;5.10;;
7160;SDS011;3622;53.576;9.978;2022-10-22T12:33:41;6.00;;;4.50;;
7160;SDS011;3622;53.576;9.978;2022-10-22T12:36:14;8.53;;;4.60;;
7160;SDS011;3622;53.576;9.978;2022-10-22T12:38:40;4.90;;;4.50;;
7160;SDS011;3622;53.576;9.978;2022-10-22T12:41:13;12.47;;;5.63;;
7160;SDS011;3622;53.576;9.978;2022-10-22T12:43:45;5.90;;;4.77;;
7160;SDS011;3622;53.576;9.978;2022-10-22T12:46:11;10.37;;;5.60;;
7160;SDS011;3622;53.576;9.978;2022-10-22T12:48:40;7.37;;;5.70;;
7160;SDS011;3622;53.576;9.978;2022-10-22T12:51:07;5.80;;;5.20;;
7160;SDS011;3622;53.576;9.978;2022-10-22T12:53:37;7.80;;;5.40;;
7160;SDS011;3622;53.576;9.978;2022-10-22T12:56:05;5.80;;;5.40;;
7160;SDS011;3622;53.576;9.978;2022-10-22T12:58:39;8.20;;;5.27;;
7160;SDS011;3622;53.576;9.978;2022-10-22T13:01:06;5.57;;;5.20;;
7160;SDS011;3622;53.576;9.978;2022-10-22T13:03:34;8.07;;;5.60;;
7160;SDS011;3622;53.576;9.978;2022-10-22T13:06:13;5.33;;;4.90;;
7160;SDS011;3622;53.576;9.978;2022-10-22T13:08:39;8.80;;;5.07;;
7160;SDS011;3622;53.576;9.978;2022-10-22T13:11:06;8.23;;;5.10;;
7160;SDS011;3622;53.576;9.978;2022-10-22T13:13:40;8.70;;;5.87;;
7160;SDS011;3622;53.576;9.978;2022-10-22T13:16:13;5.73;;;4.70;;
7160;SDS011;3622;53.576;9.978;2022-10-22T13:18:40;10.37;;;6.03;;
7160;SDS011;3622;53.576;9.978;2022-10-22T13:21:20;10.67;;;5.23;;
7160;SDS011;3622;53.576;9.978;2022-10-22T13:23:50;16.43;;;5.10;;
7160;SDS011;3622;53.576;9.978;2022-10-22T13:26:17;8.50;;;4.50;;
7160;SDS011;3622;53.576;9.978;2022-10-22T13:28:53;7.40;;;4.80;;
7160;SDS011;3622;53.576;9.978;2022-10-22T13:31:22;6.93;;;4.10;;
7160;SDS011;3622;53.576;9.978;2022-10-22T13:33:55;5.30;;;4.40;;
7160;SDS011;3622;53.576;9.978;2022-10-22T13:36:22;5.53;;;4.43;;
7160;SDS011;3622;53.576;9.978;2022-10-22T13:38:48;6.70;;;3.80;;
7160;SDS011;3622;53.576;9.978;2022-10-22T13:41:21;6.17;;;3.77;;
7160;SDS011;3622;53.576;9.978;2022-10-22T13:43:48;5.63;;;3.90;;
7160;SDS011;3622;53.576;9.978;2022-10-22T13:46:14;7.90;;;3.43;;
7160;SDS011;3622;53.576;9.978;2022-10-22T13:48:40;3.73;;;3.40;;
7160;SDS011;3622;53.576;9.978;2022-10-22T13:51:12;7.83;;;3.43;;
7160;SDS011;3622;53.576;9.978;2022-10-22T13:53:38;11.43;;;4.57;;
7160;SDS011;3622;53.576;9.978;2022-10-22T13:56:04;12.00;;;4.00;;
7160;SDS011;3622;53.576;9.978;2022-10-22T13:58:30;9.37;;;3.50;;
7160;SDS011;3622;53.576;9.978;2022-10-22T14:00:57;5.57;;;4.10;;
7160;SDS011;3622;53.576;9.978;2022-10-22T14:03:30;5.40;;;4.17;;
7160;SDS011;3622;53.576;9.978;2022-10-22T14:05:56;12.83;;;8.40;;
7160;SDS011;3622;53.576;9.978;2022-10-22T14:08:23;4.93;;;3.60;;
7160;SDS011;3622;53.576;9.978;2022-10-22T14:10:50;6.80;;;4.30;;
7160;SDS011;3622;53.576;9.978;2022-10-22T14:13:16;11.60;;;7.67;;
7160;SDS011;3622;53.576;9.978;2022-10-22T14:15:43;8.13;;;4.33;;
7160;SDS011;3622;53.576;9.978;2022-10-22T14:18:18;10.77;;;3.90;;
7160;SDS011;3622;53.576;9.978;2022-10-22T14:20:49;5.00;;;3.33;;
7160;SDS011;3622;53.576;9.978;2022-10-22T14:23:19;7.43;;;3.40;;
7160;SDS011;3622;53.576;9.978;2022-10-22T14:25:46;4.20;;;3.80;;
7160;SDS011;3622;53.576;9.978;2022-10-22T14:28:12;10.70;;;3.37;;
7160;SDS011;3622;53.576;9.978;2022-10-22T14:30:38;5.97;;;3.63;;
7160;SDS011;3622;53.576;9.978;2022-10-22T14:33:09;8.30;;;3.40;;
7160;SDS011;3622;53.576;9.978;2022-10-22T14:35:36;5.87;;;2.83;;
7160;SDS011;3622;53.576;9.978;2022-10-22T14:38:02;5.40;;;4.00;;
7160;SDS011;3622;53.576;9.978;2022-10-22T14:40:28;11.03;;;3.80;;
7160;SDS011;3622;53.576;9.978;2022-10-22T14:42:54;10.03;;;3.87;;
7160;SDS011;3622;53.576;9.978;2022-10-22T14:45:22;4.63;;;3.43;;
7160;SDS011;3622;53.576;9.978;2022-10-22T14:47:49;4.57;;;3.50;;
7160;SDS011;3622;53.576;9.978;2022-10-22T14:50:16;8.90;;;3.53;;
7160;SDS011;3622;53.576;9.978;2022-10-22T14:52:42;7.77;;;3.20;;
7160;SDS011;3622;53.576;9.978;2022-10-22T14:55:09;6.80;;;3.50;;
7160;SDS011;3622;53.576;9.978;2022-10-22T14:57:35;6.23;;;3.10;;
7160;SDS011;3622;53.576;9.978;2022-10-22T15:00:03;5.63;;;3.27;;
7160;SDS011;3622;53.576;9.978;2022-10-22T15:02:29;6.40;;;3.23;;
7160;SDS011;3622;53.576;9.978;2022-10-22T15:04:55;7.47;;;3.30;;
7160;SDS011;3622;53.576;9.978;2022-10-22T15:07:21;5.93;;;4.40;;
7160;SDS011;3622;53.576;9.978;2022-10-22T15:09:48;3.73;;;3.33;;
7160;SDS011;3622;53.576;9.978;2022-10-22T15:12:14;4.43;;;3.63;;
7160;SDS011;3622;53.576;9.978;2022-10-22T15:14:40;9.33;;;4.47;;
7160;SDS011;3622;53.576;9.978;2022-10-22T15:17:06;4.27;;;3.87;;
7160;SDS011;3622;53.576;9.978;2022-10-22T15:19:32;6.30;;;3.90;;
7160;SDS011;3622;53.576;9.978;2022-10-22T15:21:58;12.27;;;3.97;;
7160;SDS011;3622;53.576;9.978;2022-10-22T15:24:24;10.83;;;6.03;;
7160;SDS011;3622;53.576;9.978;2022-10-22T15:26:50;7.40;;;3.47;;
7160;SDS011;3622;53.576;9.978;2022-10-22T15:29:17;8.73;;;3.57;;
7160;SDS011;3622;53.576;9.978;2022-10-22T15:31:45;13.60;;;4.40;;
7160;SDS011;3622;53.576;9.978;2022-10-22T15:34:11;8.00;;;3.53;;
7160;SDS011;3622;53.576;9.978;2022-10-22T15:36:38;6.00;;;4.47;;
7160;SDS011;3622;53.576;9.978;2022-10-22T15:39:07;8.60;;;3.97;;
7160;SDS011;3622;53.576;9.978;2022-10-22T15:41:33;8.80;;;3.80;;
7160;SDS011;3622;53.576;9.978;2022-10-22T15:43:59;5.70;;;4.20;;
7160;SDS011;3622;53.576;9.978;2022-10-22T15:46:25;17.20;;;4.93;;
7160;SDS011;3622;53.576;9.978;2022-10-22T15:48:53;8.73;;;4.10;;
7160;SDS011;3622;53.576;9.978;2022-10-22T15:51:19;5.30;;;4.10;;
7160;SDS011;3622;53.576;9.978;2022-10-22T15:53:52;5.50;;;4.20;;
7160;SDS011;3622;53.576;9.978;2022-10-22T15:56:18;5.60;;;4.37;;
7160;SDS011;3622;53.576;9.978;2022-10-22T15:58:44;5.23;;;4.73;;
7160;SDS011;3622;53.576;9.978;2022-10-22T16:01:11;5.17;;;4.53;;
7160;SDS011;3622;53.576;9.978;2022-10-22T16:03:38;11.13;;;5.10;;
7160;SDS011;3622;53.576;9.978;2022-10-22T16:06:04;4.40;;;4.10;;
7160;SDS011;3622;53.576;9.978;2022-10-22T16:08:32;6.90;;;4.90;;
7160;SDS011;3622;53.576;9.978;2022-10-22T16:10:58;6.17;;;4.60;;
7160;SDS011;3622;53.576;9.978;2022-10-22T16:13:24;5.63;;;5.00;;
7160;SDS011;3622;53.576;9.978;2022-10-22T16:15:51;6.57;;;4.70;;
7160;SDS011;3622;53.576;9.978;2022-10-22T16:18:17;11.57;;;6.00;;
7160;SDS011;3622;53.576;9.978;2022-10-22T16:20:43;7.87;;;5.03;;
7160;SDS011;3622;53.576;9.978;2022-10-22T16:23:09;12.07;;;6.00;;
7160;SDS011;3622;53.576;9.978;2022-10-22T16:25:39;9.77;;;5.10;;
7160;SDS011;3622;53.576;9.978;2022-10-22T16:28:05;8.80;;;5.30;;
7160;SDS011;3622;53.576;9.978;2022-10-22T16:30:32;6.40;;;5.80;;
7160;SDS011;3622;53.576;9.978;2022-10-22T16:32:59;12.40;;;5.90;;
7160;SDS011;3622;53.576;9.978;2022-10-22T16:35:24;8.60;;;5.93;;